Terminal Aerodrome Forecast
Issued by NWS

Home | Current Version | Previous Version | Text Only | Print | Product List | Glossary On
Versions: 1 2 3 4 5 6 7 8 9 10 11 12
000
FTUS42 TJSJ 201135
TAFIST
TAF
TIST 201135Z 2012/2112 08012KT P6SM SCT025
     FM201300 08018G28KT P6SM FEW030 SCT050
     FM202300 08012KT P6SM SCT025=

USA.gov is the U.S. government's official web portal to all federal, state and local government web resources and services.